Etusivu
METAR-TAF:

METAR-TAF

Lentoasemat :

Stuttgart Municipal Airport

Stuttgart, Arkansas, Yhdysvallat

Leveyspiiri: 34-36N, Pituuspiiri: 091-34W, korkeus merenpinnasta: 68 m

Tämänhetkinen sää

Tämä raportti tehtiin 53 minuuttia sitten, kello 17.56 UTC
Tuuli 7 kn etelästä/kaakosta
Lämpötila 16°C
Kosteus 29%
Ilmanpaine 1029 hPa
Näkyvyys: 16.1 km
selkeää

METAR: KSGT 191756Z AUTO 15007KT 10SM CLR 16/M02 A3040 RMK AO2 SLP297 60000 T01561022 10156 20056 58006

Aika: 13:49 (18:49 UTC)


TAF: puuttuu

Säähavainnot ja -ennusteet yli 4000 lentoasemalta (METAR- ja TAF-raportit).

Käytössä olevat sääasemat on merkitty karttaan keltaisilla ja punaisilla pisteillä.

Aseta hiiri pisteen päälle nähdäksesi sääaseman nimen.

Klikkaa sitten nähdäksesi säähavainnot ja -ennusteet.

Kartan vaihtaminen: klikkaa mustalla rastilla varustettuja vihreitä pisteitä, niin voit zoomata sisään; viivalla varustettua vihreää pistettä, niin voit zoomata ulos tai vihreitä nuolia, niin pääset viereisille kartoille.


METAR-TAF: